createdAt,value
2023-01-19T00:00:00.988Z,21.2
2023-01-19T00:05:01.929Z,21.2
2023-01-19T00:10:01.935Z,21.2
2023-01-19T00:15:01.237Z,21.2
2023-01-19T00:20:01.085Z,21.2
2023-01-19T00:25:03.019Z,21.2
2023-01-19T00:30:01.119Z,21.2
2023-01-19T00:35:02.697Z,21.2
2023-01-19T00:40:01.893Z,21.2
2023-01-19T00:45:01.747Z,21.2
2023-01-19T00:50:01.089Z,21.2
2023-01-19T00:55:01.943Z,21.2
2023-01-19T01:00:01.014Z,21.3
2023-01-19T01:05:01.062Z,21.3
2023-01-19T01:15:01.894Z,21.3
2023-01-19T01:20:01.539Z,21.2
2023-01-19T01:25:01.201Z,21.2
2023-01-19T01:30:01.013Z,21.3
2023-01-19T01:35:01.459Z,21.3
2023-01-19T01:40:03.237Z,21.3
2023-01-19T01:45:00.994Z,21.3
2023-01-19T01:50:02.241Z,21.3
2023-01-19T01:55:01.905Z,21.3
2023-01-19T02:00:02.206Z,21.3
2023-01-19T02:05:01.466Z,21.3
2023-01-19T02:10:00.477Z,21.3
2023-01-19T02:15:02.019Z,21.3
2023-01-19T02:20:01.017Z,21.3
2023-01-19T02:25:01.325Z,21.2
2023-01-19T02:30:01.067Z,21.2
2023-01-19T02:35:01.798Z,21.2
2023-01-19T02:40:01.215Z,21.1
2023-01-19T02:45:01.100Z,21.1
2023-01-19T02:50:01.268Z,21.1
2023-01-19T02:55:01.031Z,21.0
2023-01-19T03:00:01.332Z,21.0
2023-01-19T03:05:01.075Z,21.0
2023-01-19T03:10:01.114Z,21.0
2023-01-19T03:15:02.001Z,21.0
2023-01-19T03:20:01.121Z,21.0
2023-01-19T03:25:02.622Z,20.9
2023-01-19T03:30:01.439Z,20.9
2023-01-19T03:35:01.558Z,20.9
2023-01-19T03:40:00.466Z,20.9
2023-01-19T03:45:02.096Z,20.8
2023-01-19T03:50:01.039Z,20.8
2023-01-19T03:55:02.859Z,20.8
2023-01-19T04:00:01.007Z,20.8
2023-01-19T04:05:01.563Z,20.7
2023-01-19T04:10:01.473Z,20.7
2023-01-19T04:15:01.942Z,20.8
2023-01-19T04:20:01.504Z,20.7
2023-01-19T04:25:01.812Z,20.7
2023-01-19T04:30:00.457Z,20.7
2023-01-19T04:35:01.989Z,20.7
2023-01-19T04:40:01.520Z,20.6
2023-01-19T04:45:01.038Z,20.7
2023-01-19T04:50:01.475Z,20.6
2023-01-19T04:55:01.027Z,20.6
2023-01-19T05:00:02.088Z,20.5
2023-01-19T05:05:01.031Z,20.6
2023-01-19T05:10:01.240Z,20.5
2023-01-19T05:15:01.075Z,20.5
2023-01-19T05:20:01.966Z,20.5
2023-01-19T05:25:01.031Z,20.5
2023-01-19T05:30:01.305Z,20.5
2023-01-19T05:35:01.519Z,20.5
2023-01-19T05:40:01.027Z,20.5
2023-01-19T05:45:02.207Z,20.5
2023-01-19T05:50:01.030Z,20.5
2023-01-19T05:55:01.357Z,20.4
2023-01-19T06:00:01.089Z,20.4
2023-01-19T06:05:01.049Z,20.5
2023-01-19T06:10:01.289Z,20.5
2023-01-19T06:15:01.046Z,20.4
2023-01-19T06:20:01.231Z,20.4
2023-01-19T06:25:01.482Z,20.4
2023-01-19T06:30:01.560Z,20.4
2023-01-19T06:35:02.172Z,20.4
2023-01-19T06:40:01.059Z,20.4
2023-01-19T06:45:01.006Z,20.4
2023-01-19T06:50:01.220Z,20.3
2023-01-19T06:55:01.178Z,20.4
2023-01-19T07:00:01.367Z,20.3
2023-01-19T07:05:01.296Z,20.3
2023-01-19T07:10:00.825Z,20.3
2023-01-19T07:15:00.520Z,20.3
2023-01-19T07:20:01.088Z,20.3
2023-01-19T07:25:01.354Z,20.3
2023-01-19T07:30:00.831Z,20.3
2023-01-19T07:35:01.426Z,20.3
2023-01-19T07:40:01.331Z,20.2
2023-01-19T07:45:00.815Z,20.3
2023-01-19T07:50:00.868Z,20.3
2023-01-19T07:55:00.847Z,20.3
2023-01-19T08:00:01.439Z,20.4
2023-01-19T08:05:00.947Z,20.4
2023-01-19T08:10:01.082Z,20.4
2023-01-19T08:15:01.215Z,20.5
2023-01-19T08:20:01.103Z,20.5
2023-01-19T08:25:01.086Z,20.5
2023-01-19T08:30:00.872Z,20.5
2023-01-19T08:35:01.330Z,20.5
2023-01-19T08:40:02.695Z,20.5
2023-01-19T08:45:00.877Z,20.5
2023-01-19T08:50:01.290Z,20.5
2023-01-19T08:55:00.562Z,20.5
2023-01-19T09:00:01.189Z,20.5
2023-01-19T09:05:01.115Z,20.6
2023-01-19T09:10:01.239Z,20.6
2023-01-19T09:15:01.093Z,20.6
2023-01-19T09:20:01.190Z,20.6
2023-01-19T09:25:01.149Z,20.6
2023-01-19T09:30:00.845Z,20.6
2023-01-19T09:35:01.426Z,20.6
2023-01-19T09:40:00.949Z,20.6
2023-01-19T09:45:01.377Z,20.6
2023-01-19T09:50:01.075Z,20.6
2023-01-19T09:55:01.320Z,20.6
2023-01-19T10:00:01.491Z,20.6
2023-01-19T10:05:01.192Z,20.7
2023-01-19T10:10:00.965Z,20.7
2023-01-19T10:15:01.082Z,20.7
2023-01-19T10:20:02.595Z,20.7
2023-01-19T10:25:01.852Z,20.7
2023-01-19T10:30:01.148Z,20.7
2023-01-19T10:35:01.483Z,20.7
2023-01-19T10:40:01.112Z,20.8
2023-01-19T10:45:00.535Z,20.8
2023-01-19T10:50:01.058Z,20.8
2023-01-19T10:55:01.346Z,20.8
2023-01-19T11:00:01.025Z,20.8
2023-01-19T11:05:01.484Z,20.8
2023-01-19T11:10:01.480Z,20.8
2023-01-19T11:15:01.050Z,20.8
2023-01-19T11:20:01.222Z,20.9
2023-01-19T11:25:01.360Z,20.9
2023-01-19T11:30:01.115Z,20.9
2023-01-19T11:35:01.833Z,20.9
2023-01-19T11:40:01.071Z,20.9
2023-01-19T11:45:01.058Z,20.9
2023-01-19T11:50:01.253Z,20.9
2023-01-19T11:55:01.136Z,20.9
2023-01-19T12:00:01.003Z,21.0
2023-01-19T12:05:01.620Z,21.0
2023-01-19T12:10:01.597Z,21.0
2023-01-19T12:15:01.137Z,20.9
2023-01-19T12:20:01.008Z,21.0
2023-01-19T12:25:01.321Z,21.0
2023-01-19T12:30:01.040Z,21.0
2023-01-19T12:35:01.334Z,21.0
2023-01-19T12:40:01.048Z,21.0
2023-01-19T12:45:00.983Z,21.0
2023-01-19T12:50:01.041Z,21.0
2023-01-19T12:55:01.284Z,21.0
2023-01-19T13:00:01.085Z,21.0
2023-01-19T13:05:01.319Z,21.0
2023-01-19T13:10:01.286Z,21.1
2023-01-19T13:15:01.239Z,21.1
2023-01-19T13:20:01.034Z,21.1
2023-01-19T13:25:01.542Z,21.1
2023-01-19T13:30:02.157Z,21.2
2023-01-19T13:35:01.395Z,21.2
2023-01-19T13:40:01.668Z,21.2
2023-01-19T13:45:02.442Z,21.2
2023-01-19T13:50:01.739Z,21.2
2023-01-19T13:55:03.207Z,21.3
2023-01-19T14:00:01.030Z,21.3
2023-01-19T14:05:01.580Z,21.3
2023-01-19T14:10:01.347Z,21.4
2023-01-19T14:15:01.539Z,21.4
2023-01-19T14:20:01.156Z,21.4
2023-01-19T14:25:01.086Z,21.5
2023-01-19T14:30:00.467Z,21.5
2023-01-19T14:35:02.228Z,21.5
2023-01-19T14:40:02.615Z,21.4
2023-01-19T14:45:01.184Z,21.5
2023-01-19T14:50:01.096Z,21.5
2023-01-19T14:55:01.034Z,21.5
2023-01-19T15:00:01.076Z,21.5
2023-01-19T15:05:01.246Z,21.5
2023-01-19T15:10:01.661Z,21.5
2023-01-19T15:15:01.279Z,21.5
2023-01-19T15:20:01.486Z,21.5
2023-01-19T15:25:01.555Z,21.5
2023-01-19T15:30:01.302Z,21.5
2023-01-19T15:35:01.108Z,21.4
2023-01-19T15:40:01.527Z,21.5
2023-01-19T15:45:01.221Z,21.5
2023-01-19T15:50:01.399Z,21.4
2023-01-19T15:55:01.137Z,21.4
2023-01-19T16:00:01.232Z,21.4
2023-01-19T16:05:01.568Z,21.5
2023-01-19T16:10:03.228Z,21.5
2023-01-19T16:15:01.470Z,21.5
2023-01-19T16:20:01.322Z,21.4
2023-01-19T16:25:01.084Z,21.5
2023-01-19T16:30:00.927Z,21.5
2023-01-19T16:35:00.896Z,21.4
2023-01-19T16:40:00.842Z,21.5
2023-01-19T16:45:00.950Z,21.5
2023-01-19T16:50:01.383Z,21.5
2023-01-19T16:55:00.509Z,21.4
2023-01-19T17:00:00.745Z,21.4
2023-01-19T17:05:01.285Z,21.4
2023-01-19T17:10:02.409Z,21.4
2023-01-19T17:15:01.296Z,21.4
2023-01-19T17:20:00.961Z,21.4
2023-01-19T17:25:01.075Z,21.3
2023-01-19T17:30:00.986Z,21.3
2023-01-19T17:35:01.634Z,21.3
2023-01-19T17:40:01.128Z,21.3
2023-01-19T17:45:00.769Z,21.3
2023-01-19T17:50:01.167Z,21.3
2023-01-19T17:55:01.207Z,21.2
2023-01-19T18:00:00.794Z,21.3
2023-01-19T18:05:02.537Z,21.3
2023-01-19T18:10:01.296Z,21.2
2023-01-19T18:15:01.074Z,21.3
2023-01-19T18:20:00.895Z,21.2
2023-01-19T18:25:01.545Z,21.2
2023-01-19T18:30:01.327Z,21.2
2023-01-19T18:35:00.866Z,21.2
2023-01-19T18:40:04.895Z,21.2
2023-01-19T18:45:00.840Z,21.2
2023-01-19T18:50:01.150Z,21.2
2023-01-19T18:55:01.269Z,21.2
2023-01-19T19:00:01.254Z,21.2
2023-01-19T19:05:01.549Z,21.2
2023-01-19T19:10:03.467Z,21.2
2023-01-19T19:15:01.269Z,21.2
2023-01-19T19:20:01.580Z,21.2
2023-01-19T19:25:00.498Z,21.2
2023-01-19T19:30:01.397Z,21.3
2023-01-19T19:35:00.853Z,21.2
2023-01-19T19:40:01.524Z,21.3
2023-01-19T19:45:02.885Z,21.2
2023-01-19T19:50:04.963Z,21.3
2023-01-19T19:55:02.278Z,21.3
2023-01-19T20:00:03.264Z,21.3
2023-01-19T20:05:01.537Z,21.3
2023-01-19T20:10:02.829Z,21.3
2023-01-19T20:15:01.085Z,21.3
2023-01-19T20:20:02.655Z,21.3
2023-01-19T20:25:01.599Z,21.3
2023-01-19T20:30:01.109Z,21.3
2023-01-19T20:35:01.664Z,21.3
2023-01-19T20:40:01.556Z,21.4
2023-01-19T20:45:00.896Z,21.3
2023-01-19T20:50:01.241Z,21.4
2023-01-19T20:55:01.556Z,21.4
2023-01-19T21:00:00.790Z,21.4
2023-01-19T21:05:03.270Z,21.4
2023-01-19T21:10:02.507Z,21.4
2023-01-19T21:15:00.833Z,21.4
2023-01-19T21:20:01.462Z,21.5
2023-01-19T21:25:01.529Z,21.4
2023-01-19T21:30:01.132Z,21.4
2023-01-19T21:35:01.299Z,21.5
2023-01-19T21:40:01.213Z,21.5
2023-01-19T21:45:00.833Z,21.4
2023-01-19T21:50:01.711Z,21.4
2023-01-19T21:55:00.847Z,21.5
2023-01-19T22:00:00.766Z,21.4
2023-01-19T22:05:00.816Z,21.4
2023-01-19T22:10:00.460Z,21.5
2023-01-19T22:15:01.360Z,21.4
2023-01-19T22:20:01.648Z,21.5
2023-01-19T22:25:01.089Z,21.4
2023-01-19T22:30:01.476Z,21.5
2023-01-19T22:35:01.607Z,21.5
2023-01-19T22:40:01.059Z,21.5
2023-01-19T22:45:00.766Z,21.5
2023-01-19T22:50:01.495Z,21.5
2023-01-19T22:55:01.500Z,21.4
2023-01-19T23:00:00.835Z,21.5
2023-01-19T23:05:01.303Z,21.5
2023-01-19T23:10:00.894Z,21.5
2023-01-19T23:15:01.533Z,21.5
2023-01-19T23:20:00.864Z,21.5
2023-01-19T23:25:01.507Z,21.5
2023-01-19T23:30:01.247Z,21.5
2023-01-19T23:35:02.152Z,21.5
2023-01-19T23:40:02.044Z,21.5
2023-01-19T23:45:01.348Z,21.5
2023-01-19T23:50:01.744Z,21.5
2023-01-19T23:55:00.839Z,21.5
